createdAt,value
2022-09-17T07:50:38.570Z,18.60
2022-09-17T07:53:06.030Z,18.40
2022-09-17T07:55:33.361Z,18.70
2022-09-17T07:58:00.674Z,19.20
2022-09-17T08:00:27.906Z,20.30
2022-09-17T08:02:55.868Z,20.50
2022-09-17T08:05:24.854Z,19.50
2022-09-17T08:07:55.705Z,18.80
2022-09-17T08:10:23.673Z,18.00
2022-09-17T08:12:51.756Z,18.10
2022-09-17T08:15:20.726Z,18.30
2022-09-17T08:17:48.208Z,18.20
2022-09-17T08:20:16.469Z,17.90
2022-09-17T08:22:47.930Z,17.30
2022-09-17T08:25:17.900Z,16.60
2022-09-17T08:27:44.983Z,16.50
2022-09-17T08:30:12.240Z,16.70
2022-09-17T08:32:39.417Z,17.20
2022-09-17T08:35:07.880Z,17.10
2022-09-17T08:37:35.894Z,17.00
2022-09-17T08:40:03.336Z,16.80
2022-09-17T08:42:41.022Z,16.30
2022-09-17T08:45:14.613Z,16.40
2022-09-17T08:47:43.760Z,16.80
2022-09-17T08:50:28.597Z,16.70
2022-09-17T08:53:04.960Z,16.70
2022-09-17T08:55:41.090Z,17.50
2022-09-17T08:58:23.691Z,18.20
2022-09-17T09:00:58.006Z,18.70
2022-09-17T09:03:43.890Z,19.00
2022-09-17T09:06:12.486Z,18.30
2022-09-17T09:08:51.908Z,17.50
2022-09-17T09:11:26.743Z,17.30
2022-09-17T09:13:57.053Z,16.80
2022-09-17T09:16:29.038Z,16.40
2022-09-17T09:19:00.047Z,16.10
2022-09-17T09:21:28.694Z,15.90
2022-09-17T09:23:58.847Z,15.80
2022-09-17T09:26:49.025Z,15.80
2022-09-17T09:29:19.267Z,16.00
2022-09-17T09:31:58.812Z,16.40
2022-09-17T09:34:27.602Z,16.40
2022-09-17T09:36:59.337Z,17.30
2022-09-17T09:39:36.235Z,19.00
2022-09-17T09:42:10.944Z,19.60
2022-09-17T09:44:38.348Z,19.60
2022-09-17T09:47:08.350Z,19.80
2022-09-17T09:49:47.814Z,19.10
2022-09-17T09:52:14.983Z,18.40
2022-09-17T09:54:44.940Z,18.30
2022-09-17T09:57:16.608Z,18.50
2022-09-17T09:59:44.059Z,18.40
2022-09-17T10:02:12.111Z,17.80
2022-09-17T10:04:39.463Z,17.90
2022-09-17T10:07:08.258Z,19.10
2022-09-17T10:09:37.390Z,20.60
2022-09-17T10:12:13.854Z,20.30
2022-09-17T10:14:45.536Z,20.20
2022-09-17T10:17:17.516Z,19.10
2022-09-17T10:19:45.246Z,18.00
2022-09-17T10:22:32.670Z,17.20
2022-09-17T10:25:00.613Z,16.70
2022-09-17T10:27:28.430Z,16.40
2022-09-17T10:30:03.960Z,16.00
2022-09-17T10:32:31.449Z,15.50
2022-09-17T10:34:58.668Z,15.00
2022-09-17T10:37:45.174Z,14.50
2022-09-17T10:40:31.943Z,14.20
2022-09-17T10:43:16.674Z,14.20
2022-09-17T10:45:56.958Z,14.20
2022-09-17T10:48:24.435Z,14.40
2022-09-17T10:50:56.731Z,15.20
2022-09-17T10:53:25.187Z,15.50
2022-09-17T10:55:52.301Z,15.40
2022-09-17T10:58:42.265Z,15.50
2022-09-17T11:01:18.545Z,15.60
2022-09-17T11:03:48.867Z,15.50
2022-09-17T11:06:34.777Z,15.50
2022-09-17T11:09:22.404Z,15.20
2022-09-17T11:11:49.667Z,15.10
2022-09-17T11:14:36.237Z,14.80
2022-09-17T11:17:08.380Z,14.50
2022-09-17T11:19:55.887Z,14.10
2022-09-17T11:22:26.233Z,13.90
2022-09-17T11:24:59.048Z,13.90
2022-09-17T11:27:29.311Z,15.90
2022-09-17T11:29:57.198Z,19.10
2022-09-17T11:32:42.755Z,22.80
2022-09-17T11:35:16.430Z,23.70
2022-09-17T11:38:04.575Z,23.00
2022-09-17T11:40:47.139Z,20.70
2022-09-17T11:43:21.504Z,18.70
2022-09-17T11:46:11.983Z,17.20
2022-09-17T11:48:48.417Z,16.20
2022-09-17T11:51:36.428Z,15.40
2022-09-17T11:54:06.587Z,14.90
2022-09-17T11:56:41.582Z,14.50
2022-09-17T11:59:14.916Z,14.40
2022-09-17T12:01:47.479Z,14.20
2022-09-17T12:04:15.526Z,14.10
2022-09-17T12:06:47.046Z,14.00
2022-09-17T12:09:17.972Z,14.00
2022-09-17T12:11:45.084Z,14.00
2022-09-17T12:14:35.299Z,14.00
2022-09-17T12:17:03.943Z,14.00
2022-09-17T12:19:43.498Z,13.90
2022-09-17T12:22:11.139Z,13.80
2022-09-17T12:24:39.640Z,13.80
2022-09-17T12:27:13.548Z,14.00
2022-09-17T12:30:02.113Z,14.40
2022-09-17T12:32:48.574Z,14.90
2022-09-17T12:36:02.470Z,15.30
2022-09-17T12:38:40.301Z,15.30
2022-09-17T12:41:10.677Z,15.10
2022-09-17T12:43:56.494Z,15.20
2022-09-17T12:46:29.992Z,15.50
2022-09-17T12:49:03.113Z,15.50
2022-09-17T12:51:33.213Z,15.90
2022-09-17T12:54:05.949Z,16.10
2022-09-17T12:56:39.708Z,15.90
2022-09-17T12:59:19.524Z,16.30
2022-09-17T13:01:52.725Z,17.30
2022-09-17T13:04:49.880Z,17.10
2022-09-17T13:07:34.550Z,17.60
2022-09-17T13:10:04.816Z,16.70
2022-09-17T13:12:35.090Z,15.90
2022-09-17T13:15:08.374Z,15.60
2022-09-17T13:17:35.620Z,15.50
2022-09-17T13:20:03.049Z,15.50
2022-09-17T13:22:33.360Z,15.80
2022-09-17T13:25:12.054Z,16.50
2022-09-17T13:27:40.370Z,16.90
2022-09-17T13:30:08.306Z,17.80
2022-09-17T13:32:35.788Z,18.80
2022-09-17T13:35:12.418Z,19.60
2022-09-17T13:37:40.948Z,20.70
2022-09-17T13:40:26.785Z,21.00
2022-09-17T13:43:00.144Z,21.40
2022-09-17T13:45:27.280Z,21.90
2022-09-17T13:47:57.533Z,21.30
2022-09-17T13:50:26.756Z,22.10
2022-09-17T13:53:14.646Z,22.50
2022-09-17T13:55:49.321Z,22.10
2022-09-17T13:58:19.230Z,20.10
2022-09-17T14:00:49.731Z,19.70
2022-09-17T14:03:29.194Z,19.20
2022-09-17T14:05:56.457Z,18.70
2022-09-17T14:08:28.841Z,19.00
2022-09-17T14:10:56.819Z,19.20
2022-09-17T14:13:28.996Z,19.30
2022-09-17T14:15:58.281Z,20.10
2022-09-17T14:18:28.599Z,20.70
2022-09-17T14:21:15.044Z,20.90
2022-09-17T14:23:43.337Z,20.90
2022-09-17T14:26:15.111Z,20.80
2022-09-17T14:28:54.598Z,19.80
2022-09-17T14:31:25.383Z,18.30
2022-09-17T14:33:53.006Z,17.10
2022-09-17T14:36:21.718Z,16.10
2022-09-17T14:38:51.134Z,15.50
2022-09-17T14:41:23.380Z,15.00
2022-09-17T14:43:53.207Z,14.60
2022-09-17T14:46:20.402Z,14.20
2022-09-17T14:48:47.871Z,13.90
2022-09-17T14:51:18.071Z,13.60
2022-09-17T14:53:45.884Z,13.40
2022-09-17T14:56:14.986Z,13.20
2022-09-17T14:58:43.941Z,12.90
2022-09-17T15:01:30.445Z,12.70
2022-09-17T15:04:16.193Z,12.70
2022-09-17T15:06:44.005Z,12.60
2022-09-17T15:09:16.254Z,12.60
2022-09-17T15:11:44.273Z,12.60
2022-09-17T15:14:16.379Z,12.70
2022-09-17T15:16:48.645Z,12.70
2022-09-17T15:19:22.389Z,12.70
2022-09-17T15:21:53.207Z,12.80
2022-09-17T15:24:27.214Z,12.80
2022-09-17T15:26:56.477Z,12.90
2022-09-17T15:29:25.806Z,13.00
2022-09-17T15:31:53.429Z,13.10
2022-09-17T15:34:20.851Z,13.10
2022-09-17T15:37:03.851Z,13.00
2022-09-17T15:39:41.153Z,12.90
2022-09-17T15:42:31.048Z,12.80
2022-09-17T15:45:08.775Z,12.80
2022-09-17T15:47:38.115Z,12.70
2022-09-17T15:50:12.227Z,12.70
2022-09-17T15:52:39.767Z,12.70
2022-09-17T15:55:07.048Z,12.70
2022-09-17T15:57:34.285Z,12.70
2022-09-17T16:00:13.449Z,12.70
2022-09-17T16:02:40.849Z,12.70
2022-09-17T16:05:08.035Z,12.70
2022-09-17T16:07:35.187Z,12.60
2022-09-17T16:10:02.415Z,12.60
2022-09-17T16:12:29.723Z,12.60
2022-09-17T16:14:58.480Z,12.50
2022-09-17T16:17:28.769Z,12.50
2022-09-17T16:19:56.579Z,12.40
2022-09-17T16:22:23.637Z,12.30
2022-09-17T16:24:50.755Z,12.20
2022-09-17T16:27:22.875Z,12.20
2022-09-17T16:29:51.246Z,12.10
2022-09-17T16:32:18.502Z,12.00
2022-09-17T16:34:45.627Z,11.90
2022-09-17T16:37:12.858Z,11.80
2022-09-17T16:39:40.068Z,11.70
2022-09-17T16:42:07.238Z,11.60
2022-09-17T16:44:34.637Z,11.60
2022-09-17T16:47:01.898Z,11.50
2022-09-17T16:49:29.154Z,11.40
2022-09-17T16:51:56.681Z,11.30
2022-09-17T16:54:23.867Z,11.30
2022-09-17T16:56:51.822Z,11.30
2022-09-17T16:59:19.160Z,11.30
2022-09-17T17:01:46.580Z,11.20
2022-09-17T17:04:13.779Z,11.20
2022-09-17T17:06:40.907Z,11.20
2022-09-17T17:09:08.108Z,11.20
2022-09-17T17:11:35.319Z,11.30
2022-09-17T17:14:05.568Z,11.20
2022-09-17T17:16:32.889Z,11.20
2022-09-17T17:19:00.267Z,11.20
2022-09-17T17:21:30.210Z,11.20
2022-09-17T17:23:57.345Z,11.30
2022-09-17T17:26:24.729Z,11.30
2022-09-17T17:28:51.866Z,11.30
2022-09-17T17:31:19.182Z,11.30
2022-09-17T17:33:46.440Z,11.30
2022-09-17T17:36:14.059Z,11.40
2022-09-17T17:38:41.290Z,11.40
2022-09-17T17:41:09.828Z,11.40
2022-09-17T17:43:37.283Z,11.40
2022-09-17T17:46:08.903Z,11.40
2022-09-17T17:48:36.569Z,11.40
2022-09-17T17:51:05.044Z,11.50
2022-09-17T17:53:33.366Z,11.50
2022-09-17T17:56:02.159Z,11.50
2022-09-17T17:58:30.254Z,11.50
2022-09-17T18:00:57.822Z,11.50
2022-09-17T18:03:25.488Z,11.50
2022-09-17T18:05:58.799Z,11.50
2022-09-17T18:08:26.278Z,11.50
2022-09-17T18:10:53.423Z,11.50
2022-09-17T18:13:20.796Z,11.50
2022-09-17T18:15:55.902Z,11.50
2022-09-17T18:18:23.985Z,11.40
2022-09-17T18:20:53.530Z,11.40
2022-09-17T18:23:21.100Z,11.40
2022-09-17T18:25:57.409Z,11.40
2022-09-17T18:28:24.847Z,11.40
2022-09-17T18:30:52.349Z,11.40
2022-09-17T18:33:24.845Z,11.40
2022-09-17T18:35:57.728Z,11.40
2022-09-17T18:38:25.020Z,11.40
2022-09-17T18:40:52.677Z,11.40
2022-09-17T18:43:19.977Z,11.40
2022-09-17T18:45:56.852Z,11.40
2022-09-17T18:48:24.573Z,11.40
2022-09-17T18:51:10.717Z,11.40
2022-09-17T18:53:38.868Z,11.40
2022-09-17T18:56:18.006Z,11.40
2022-09-17T18:58:47.121Z,11.40
2022-09-17T19:01:14.758Z,11.40
2022-09-17T19:03:42.979Z,11.40
2022-09-17T19:06:11.113Z,11.40
2022-09-17T19:08:38.790Z,11.40
2022-09-17T19:11:06.122Z,11.40
2022-09-17T19:13:34.465Z,11.40
2022-09-17T19:16:02.057Z,11.40
2022-09-17T19:18:29.548Z,11.40
2022-09-17T19:21:00.772Z,11.40
2022-09-17T19:23:28.928Z,11.40
2022-09-17T19:25:56.842Z,11.40
2022-09-17T19:28:24.307Z,11.40
2022-09-17T19:30:51.552Z,11.40
2022-09-17T19:33:18.793Z,11.40
2022-09-17T19:35:46.335Z,11.40
2022-09-17T19:38:13.569Z,11.40
2022-09-17T19:40:41.213Z,11.40
2022-09-17T19:43:08.686Z,11.40
2022-09-17T19:45:36.230Z,11.40
2022-09-17T19:48:03.923Z,11.40
2022-09-17T19:50:33.955Z,11.40
2022-09-17T19:53:01.110Z,11.40
2022-09-17T19:55:28.355Z,11.40
2022-09-17T19:57:55.631Z,11.40
2022-09-17T20:00:23.273Z,11.40
2022-09-17T20:02:50.510Z,11.40
2022-09-17T20:05:17.896Z,11.40
2022-09-17T20:07:45.192Z,11.40
2022-09-17T20:10:12.737Z,11.30
2022-09-17T20:12:40.098Z,11.30
2022-09-17T20:15:07.601Z,11.40
2022-09-17T20:17:35.234Z,11.40
2022-09-17T20:20:03.397Z,11.40
2022-09-17T20:22:30.527Z,11.40
2022-09-17T20:24:57.754Z,11.40
2022-09-17T20:27:25.218Z,11.40
2022-09-17T20:29:52.885Z,11.30
2022-09-17T20:32:20.285Z,11.30
2022-09-17T20:34:47.550Z,11.30
2022-09-17T20:37:14.633Z,11.30
2022-09-17T20:39:42.138Z,11.30
2022-09-17T20:42:09.426Z,11.30
2022-09-17T20:44:36.521Z,11.30
2022-09-17T20:47:03.806Z,11.30
2022-09-17T20:49:31.362Z,11.30
2022-09-17T20:51:58.454Z,11.30
2022-09-17T20:54:25.619Z,11.30
2022-09-17T20:56:53.262Z,11.30
2022-09-17T20:59:25.131Z,11.30
2022-09-17T21:01:53.926Z,11.30
2022-09-17T21:04:22.086Z,11.30
2022-09-17T21:06:52.519Z,11.30
2022-09-17T21:09:20.273Z,11.30
2022-09-17T21:11:49.217Z,11.30
2022-09-17T21:14:17.821Z,11.30
2022-09-17T21:16:46.067Z,11.30
2022-09-17T21:19:13.958Z,11.30
2022-09-17T21:21:41.153Z,11.30
2022-09-17T21:24:10.453Z,11.30
2022-09-17T21:26:37.976Z,11.30
2022-09-17T21:29:05.408Z,11.30
2022-09-17T21:31:34.025Z,11.30
2022-09-17T21:34:03.430Z,11.30
2022-09-17T21:36:32.305Z,11.30
2022-09-17T21:39:01.318Z,11.30
2022-09-17T21:41:29.332Z,11.30
2022-09-17T21:43:57.126Z,11.30
2022-09-17T21:46:25.776Z,11.20
2022-09-17T21:48:56.520Z,11.20
2022-09-17T21:51:30.823Z,11.30
2022-09-17T21:54:02.675Z,11.20
2022-09-17T21:56:30.669Z,11.20
2022-09-17T21:59:02.260Z,11.10
2022-09-17T22:01:35.982Z,11.20
2022-09-17T22:04:03.281Z,11.20
2022-09-17T22:06:31.652Z,11.10
2022-09-17T22:08:59.926Z,11.20
2022-09-17T22:11:29.860Z,11.20
2022-09-17T22:14:11.314Z,11.10
2022-09-17T22:16:43.251Z,11.10
2022-09-17T22:19:11.857Z,11.10
2022-09-17T22:21:42.974Z,11.20
2022-09-17T22:24:11.166Z,11.10
2022-09-17T22:26:40.069Z,11.10
2022-09-17T22:29:09.843Z,11.10
2022-09-17T22:31:37.439Z,11.00
2022-09-17T22:34:08.259Z,11.00
2022-09-17T22:36:35.494Z,11.00
2022-09-17T22:39:02.892Z,10.90
2022-09-17T22:41:31.146Z,10.90
2022-09-17T22:43:59.785Z,10.80
2022-09-17T22:46:28.536Z,10.80
2022-09-17T22:48:55.726Z,10.70
2022-09-17T22:51:23.203Z,10.70
2022-09-17T22:53:51.080Z,10.50
2022-09-17T22:56:19.500Z,10.50
2022-09-17T22:58:47.277Z,10.40
2022-09-17T23:01:21.282Z,10.30
2022-09-17T23:03:49.756Z,10.30
2022-09-17T23:06:18.361Z,10.20
2022-09-17T23:08:45.522Z,10.20
2022-09-17T23:11:26.365Z,10.20
2022-09-17T23:13:53.885Z,10.10
2022-09-17T23:16:21.414Z,10.00
2022-09-17T23:18:48.610Z,9.90
2022-09-17T23:21:17.369Z,9.90
2022-09-17T23:23:45.947Z,9.80
2022-09-17T23:26:14.695Z,9.90
2022-09-17T23:28:41.901Z,9.90
2022-09-17T23:31:09.167Z,9.90
2022-09-17T23:33:36.606Z,9.80
2022-09-17T23:36:07.765Z,9.70
2022-09-17T23:38:35.256Z,9.60
2022-09-17T23:41:09.900Z,9.60
2022-09-17T23:43:37.157Z,9.60
2022-09-17T23:46:04.469Z,9.60
2022-09-17T23:48:31.910Z,9.60
2022-09-17T23:50:59.098Z,9.70
2022-09-17T23:53:26.363Z,9.70
2022-09-17T23:55:53.507Z,9.70
2022-09-17T23:58:20.615Z,9.70
